Isleham, United Kingdom
Current Conditions -  °F | °C
As of 10:58 PM on Monday 22 Dec 2014 (Local Time) from EGUN Reporting Station
Broken Clouds Broken Clouds  
Wind Chill: 53°   Ceiling: 2200
Heat Index: 53°   Visibility: 6mi
Dew Point: 47°   Wind: 22mph
Humidity: 80%   Direction: 240°WSW
Pressure: 29.95"   Gusts: 29mph
Location:  52.34°N, 0.41°E
Report Text: EGUN 222258Z AUTO 24019G25KT 9999 BKN022 12/08 A2995 RMK AO2 PK WND 23027/29 BKN V OVC SLP145 T01170083
Loading
Personal Weather Stations






























Interactive Weather Map New forecast layout! Learn more

10-Day Weather Forecast

Advertisements
Track Severe Weather on mobile